Time;durP1;ratioP1;P1;durP2;ratioP2;P2;SDS_P1;SDS_P2;PMS_P1;PMS_P2;Temp;Humidity;BMP_temperature;BMP_pressure;BME280_temperature;BME280_humidity;BME280_pressure;Samples;Min_cycle;Max_cycle;Signal;HPM_P1;HPM_P2
2022/07/13 00:00:27;;;;;;;11.07;10.27;;;;;;;19.64;95.03;101976.16;4970161;28;20455;-44
2022/07/13 00:02:55;;;;;;;9.50;8.80;;;;;;;19.61;95.11;101971.22;4969082;28;21014;-44
2022/07/13 00:05:23;;;;;;;11.53;10.63;;;;;;;19.58;95.08;101964.38;4969698;28;20800;-46
2022/07/13 00:07:51;;;;;;;11.50;10.30;;;;;;;19.58;96.00;101963.53;4969470;28;20521;-45
2022/07/13 00:10:20;;;;;;;11.40;10.60;;;;;;;19.56;96.05;101962.94;5030812;23;20582;-43
2022/07/13 00:12:48;;;;;;;11.70;10.70;;;;;;;19.52;96.31;101961.75;5030916;28;20470;-43
2022/07/13 00:15:15;;;;;;;9.93;9.20;;;;;;;19.52;96.51;101959.03;5031472;28;20566;-42
2022/07/13 00:17:43;;;;;;;12.73;10.47;;;;;;;19.53;96.57;101960.69;5031450;28;20436;-43
2022/07/13 00:20:11;;;;;;;12.50;11.40;;;;;;;19.53;96.50;101966.94;5031174;28;20456;-42
2022/07/13 00:22:39;;;;;;;9.83;9.03;;;;;;;19.51;96.41;101960.06;5030750;28;20465;-42
2022/07/13 00:25:08;;;;;;;11.67;10.73;;;;;;;19.50;96.66;101958.44;5031321;28;20432;-42
2022/07/13 00:27:37;;;;;;;9.83;9.03;;;;;;;19.50;96.83;101953.03;5031136;28;20435;-42
2022/07/13 00:30:05;;;;;;;9.50;8.80;;;;;;;19.50;96.66;101958.44;5031108;28;20538;-43
2022/07/13 00:32:33;;;;;;;9.97;9.17;;;;;;;19.51;96.74;101957.38;5037200;28;20453;-43
2022/07/13 00:35:01;;;;;;;10.67;9.77;;;;;;;19.50;96.63;101953.88;5042440;28;21070;-42
2022/07/13 00:37:28;;;;;;;11.40;10.60;;;;;;;19.51;96.77;101949.25;5050895;28;20542;-42
2022/07/13 00:39:56;;;;;;;12.80;11.80;;;;;;;19.47;97.13;101948.06;5050713;28;20461;-44
2022/07/13 00:42:23;;;;;;;10.90;10.13;;;;;;;19.45;97.33;101948.28;5050145;28;20461;-42
2022/07/13 00:44:52;;;;;;;10.90;10.10;;;;;;;19.45;97.24;101947.44;5050649;28;20431;-44
2022/07/13 00:47:20;;;;;;;12.97;11.90;;;;;;;19.42;97.46;101948.72;5050750;28;20435;-42
2022/07/13 00:49:48;;;;;;;12.17;11.27;;;;;;;19.43;97.54;101941.44;5050910;28;20799;-42
2022/07/13 00:52:16;;;;;;;13.07;11.70;;;;;;;19.40;97.49;101941.91;5049956;28;20461;-42
2022/07/13 00:54:45;;;;;;;11.63;10.67;;;;;;;19.38;97.80;101927.75;5050725;28;20470;-45
2022/07/13 00:57:15;;;;;;;13.90;12.77;;;;;;;19.35;97.83;101927.13;5050634;28;20541;-42
2022/07/13 00:59:43;;;;;;;14.57;13.37;;;;;;;19.34;97.93;101922.78;5050330;28;20517;-43
2022/07/13 01:02:12;;;;;;;14.00;12.80;;;;;;;19.32;97.98;101919.47;5049391;28;20547;-43
2022/07/13 01:04:39;;;;;;;13.23;11.93;;;;;;;19.32;98.08;101927.59;5050394;28;20496;-42
2022/07/13 01:07:07;;;;;;;15.17;13.83;;;;;;;19.29;98.17;101914.50;5050469;28;20433;-42
2022/07/13 01:09:35;;;;;;;13.47;12.57;;;;;;;19.30;98.06;101909.94;5050215;28;20998;-42
2022/07/13 01:12:05;;;;;;;13.00;11.90;;;;;;;19.30;98.12;101896.41;5049742;28;20465;-43
2022/07/13 01:14:34;;;;;;;13.20;12.20;;;;;;;19.32;98.12;101891.63;5050395;28;20557;-43
2022/07/13 01:17:02;;;;;;;16.00;14.70;;;;;;;19.30;98.04;101891.84;5050562;28;20435;-45
2022/07/13 01:19:34;;;;;;;15.10;13.70;;;;;;;19.26;98.47;101885.22;5050248;28;20573;-42
2022/07/13 01:22:03;;;;;;;16.40;14.80;;;;;;;19.24;98.42;101889.19;5049876;28;20482;-43
2022/07/13 01:24:34;;;;;;;15.00;13.70;;;;;;;19.21;98.87;101879.66;5050260;28;20774;-42
2022/07/13 01:27:02;;;;;;;15.47;14.17;;;;;;;19.18;99.21;101880.13;5050538;28;20434;-42
2022/07/13 01:29:30;;;;;;;17.40;15.90;;;;;;;19.17;99.17;101883.88;5050276;28;20461;-42
2022/07/13 01:32:00;;;;;;;16.63;15.00;;;;;;;19.18;99.07;101876.56;5049623;28;20463;-42
2022/07/13 01:34:28;;;;;;;14.23;13.20;;;;;;;19.17;99.04;101883.06;5041782;28;20469;-42
2022/07/13 01:36:56;;;;;;;13.93;12.63;;;;;;;19.16;99.08;101882.22;5050115;28;20450;-45
2022/07/13 01:39:24;;;;;;;16.80;15.20;;;;;;;19.16;99.05;101884.94;5050231;28;20455;-42
2022/07/13 01:41:53;;;;;;;14.17;12.93;;;;;;;19.16;98.92;101881.41;5049865;28;20458;-45
2022/07/13 01:44:20;;;;;;;14.83;13.57;;;;;;;19.15;98.94;101879.72;5049853;28;20514;-42
2022/07/13 01:46:48;;;;;;;15.67;14.10;;;;;;;19.14;98.97;101875.41;5050379;28;20441;-43
2022/07/13 01:49:16;;;;;;;14.47;13.20;;;;;;;19.14;98.89;101867.28;5049881;28;20820;-42
2022/07/13 01:51:43;;;;;;;16.13;14.63;;;;;;;19.13;98.93;101863.75;5049582;28;20469;-42
2022/07/13 01:54:11;;;;;;;17.43;15.90;;;;;;;19.14;98.87;101867.28;5050058;28;20442;-45
2022/07/13 01:56:39;;;;;;;16.57;15.03;;;;;;;19.14;99.00;101861.88;5050002;28;20441;-42
2022/07/13 01:59:08;;;;;;;16.67;15.00;;;;;;;19.12;98.85;101859.38;5049756;28;20450;-42
2022/07/13 02:01:35;;;;;;;15.63;14.33;;;;;;;19.12;99.13;101861.25;5049781;28;20454;-46
2022/07/13 02:04:03;;;;;;;16.00;14.60;;;;;;;19.11;99.02;101852.34;5050023;28;20435;-43
2022/07/13 02:06:31;;;;;;;15.83;14.37;;;;;;;19.11;99.20;101846.09;5049872;28;20439;-42
2022/07/13 02:08:59;;;;;;;16.50;15.10;;;;;;;19.13;99.23;101850.22;5049747;28;20554;-42
2022/07/13 02:11:26;;;;;;;16.67;15.27;;;;;;;19.12;99.34;101851.28;5049582;28;20466;-43
2022/07/13 02:13:54;;;;;;;18.50;16.77;;;;;;;19.13;99.20;101855.63;5051918;28;20435;-45
2022/07/13 02:16:23;;;;;;;16.63;14.90;;;;;;;19.13;99.24;101849.41;5053817;28;20470;-42
2022/07/13 02:18:51;;;;;;;17.03;15.40;;;;;;;19.12;99.39;101848.56;5053459;28;20482;-43
2022/07/13 02:21:18;;;;;;;17.73;16.03;;;;;;;19.11;99.38;101848.81;5053279;28;20469;-46
2022/07/13 02:23:46;;;;;;;17.43;15.93;;;;;;;19.11;99.49;101856.91;5053419;28;20858;-42
2022/07/13 02:26:13;;;;;;;19.30;17.43;;;;;;;19.10;99.64;101847.97;5053436;28;20422;-43
2022/07/13 02:28:41;;;;;;;19.10;17.40;;;;;;;19.11;99.59;101840.69;5053253;28;21006;-43
2022/07/13 02:31:09;;;;;;;19.00;17.20;;;;;;;19.10;99.79;101842.56;5052922;28;21013;-44
2022/07/13 02:33:38;;;;;;;16.20;14.80;;;;;;;19.11;99.67;101840.69;5045464;28;20520;-43
2022/07/13 02:36:06;;;;;;;18.30;16.60;;;;;;;19.09;99.76;101835.50;5053313;28;20474;-42
2022/07/13 02:38:34;;;;;;;17.60;15.90;;;;;;;19.10;99.69;101829.06;5053549;28;20441;-43
2022/07/13 02:41:02;;;;;;;17.77;16.07;;;;;;;19.12;99.81;101829.63;5037311;28;21261;-42
2022/07/13 02:43:29;;;;;;;21.90;19.80;;;;;;;19.10;99.63;101828.22;5030558;28;20435;-41
2022/07/13 02:45:57;;;;;;;18.47;16.83;;;;;;;19.11;99.57;101824.47;5031013;28;20432;-42
2022/07/13 02:48:25;;;;;;;18.10;16.60;;;;;;;19.11;99.60;101829.88;5033228;28;20442;-43
2022/07/13 02:50:54;;;;;;;18.77;16.80;;;;;;;19.08;99.65;101814.94;5032711;28;20440;-42
2022/07/13 02:53:21;;;;;;;18.17;16.27;;;;;;;19.08;99.82;101817.66;5032866;28;20432;-42
2022/07/13 02:55:49;;;;;;;19.60;17.90;;;;;;;19.08;99.98;101811.41;5033068;28;20475;-43
2022/07/13 02:58:16;;;;;;;20.20;18.27;;;;;;;19.06;100.00;101806.22;5032748;28;20435;-44
2022/07/13 03:00:44;;;;;;;20.60;18.40;;;;;;;19.06;100.00;101806.22;5032699;28;20816;-42
2022/07/13 03:03:12;;;;;;;21.10;19.00;;;;;;;19.06;100.00;101808.91;5032544;28;20471;-42
2022/07/13 03:05:39;;;;;;;21.60;19.60;;;;;;;19.03;100.00;101803.13;5032702;28;20432;-42
2022/07/13 03:08:08;;;;;;;22.67;20.50;;;;;;;19.04;100.00;101804.78;5032787;28;20432;-44
2022/07/13 03:10:36;;;;;;;18.80;17.10;;;;;;;19.04;100.00;101805.63;5032521;28;21273;-42
2022/07/13 03:13:03;;;;;;;21.17;19.17;;;;;;;19.05;100.00;101807.28;5031979;28;20467;-42
2022/07/13 03:15:31;;;;;;;19.67;17.83;;;;;;;19.04;100.00;101807.50;5032766;28;21076;-42
2022/07/13 03:17:59;;;;;;;18.80;16.97;;;;;;;19.03;100.00;101811.25;5032754;28;20436;-42
2022/07/13 03:20:27;;;;;;;24.50;22.10;;;;;;;19.03;100.00;101805.84;5032434;28;20517;-42
2022/07/13 03:22:54;;;;;;;22.43;19.97;;;;;;;19.03;100.00;101809.38;5031925;28;20454;-42
2022/07/13 03:25:24;;;;;;;22.53;20.47;;;;;;;19.03;100.00;101801.25;5031989;28;20431;-42
2022/07/13 03:27:51;;;;;;;23.93;21.70;;;;;;;19.01;100.00;101808.78;5032360;28;20432;-43
2022/07/13 03:30:19;;;;;;;23.13;20.77;;;;;;;19.02;100.00;101817.72;5032715;28;20486;-42
2022/07/13 03:32:48;;;;;;;22.03;19.80;;;;;;;19.02;100.00;101807.75;5039695;28;20458;-43
2022/07/13 03:35:15;;;;;;;23.30;21.03;;;;;;;19.04;100.00;101810.19;5044971;28;20486;-44
2022/07/13 03:37:43;;;;;;;23.20;20.90;;;;;;;19.04;100.00;101819.13;5052028;28;20950;-43
2022/07/13 03:40:12;;;;;;;23.60;21.30;;;;;;;19.06;100.00;101822.44;5051723;28;20454;-42
2022/07/13 03:42:41;;;;;;;27.13;24.37;;;;;;;19.06;100.00;101827.84;5051193;28;20541;-42
2022/07/13 03:45:09;;;;;;;23.43;21.00;;;;;;;19.06;100.00;101816.19;5051923;28;20932;-42
2022/07/13 03:47:37;;;;;;;23.53;21.10;;;;;;;19.06;100.00;101814.31;5052074;28;20430;-44
2022/07/13 03:50:05;;;;;;;23.17;19.57;;;;;;;19.06;100.00;101814.31;5052030;28;20455;-42
2022/07/13 03:52:33;;;;;;;24.10;21.80;;;;;;;19.07;100.00;101807.88;5044974;28;20472;-44
2022/07/13 03:55:00;;;;;;;23.00;20.80;;;;;;;19.07;100.00;101797.06;5031946;28;20431;-44
2022/07/13 03:57:28;;;;;;;25.67;23.27;;;;;;;19.05;100.00;101801.88;5031860;28;20436;-42
2022/07/13 03:59:57;;;;;;;25.57;22.77;;;;;;;19.07;100.00;101797.06;5031842;28;20458;-43
2022/07/13 04:02:24;;;;;;;25.77;23.00;;;;;;;19.09;100.00;101805.75;5031293;28;20559;-42
2022/07/13 04:04:52;;;;;;;22.20;20.30;;;;;;;19.11;100.00;101810.97;5031630;28;20957;-43
2022/07/13 04:07:20;;;;;;;28.17;25.57;;;;;;;19.13;100.00;101803.44;5031437;28;20959;-42
2022/07/13 04:09:47;;;;;;;25.27;22.83;;;;;;;19.16;100.00;101808.38;5031589;28;20550;-42
2022/07/13 04:12:20;;;;;;;23.23;21.03;;;;;;;19.18;100.00;101790.03;5030847;28;20463;-42
2022/07/13 04:14:48;;;;;;;22.07;19.87;;;;;;;19.21;100.00;101792.28;5031543;28;20782;-42
2022/07/13 04:17:17;;;;;;;22.57;20.57;;;;;;;19.24;100.00;101795.38;5031325;28;20475;-42
2022/07/13 04:19:45;;;;;;;26.70;24.00;;;;;;;19.28;100.00;101782.22;5031151;28;20458;-44
2022/07/13 04:22:12;;;;;;;26.37;23.67;;;;;;;19.30;100.00;101780.94;5030603;28;20460;-42
2022/07/13 04:24:40;;;;;;;28.97;26.27;;;;;;;19.30;100.00;101783.66;5031368;28;20435;-42
2022/07/13 04:27:07;;;;;;;27.43;24.83;;;;;;;19.28;100.00;101777.66;5031199;28;20440;-43
2022/07/13 04:29:35;;;;;;;27.03;23.40;;;;;;;19.31;100.00;101771.78;5031072;28;20973;-43
2022/07/13 04:32:03;;;;;;;27.90;25.20;;;;;;;19.32;100.00;101776.13;5033419;28;20459;-42
2022/07/13 04:34:32;;;;;;;22.53;20.37;;;;;;;19.37;100.00;101777.31;5042663;28;20431;-42
2022/07/13 04:37:00;;;;;;;26.60;24.10;;;;;;;19.38;100.00;101778.97;5050488;28;20481;-44
2022/07/13 04:39:27;;;;;;;30.83;21.57;;;;;;;19.40;100.00;101771.47;5050720;28;20455;-44
2022/07/13 04:41:55;;;;;;;24.77;22.60;;;;;;;19.41;100.00;101770.44;5050558;28;20466;-47
2022/07/13 04:44:23;;;;;;;23.93;21.63;;;;;;;19.44;100.00;101773.50;5050698;28;20529;-43
2022/07/13 04:46:50;;;;;;;23.50;21.17;;;;;;;19.45;100.00;101763.50;5051113;28;20430;-44
2022/07/13 04:49:19;;;;;;;25.40;22.97;;;;;;;19.44;100.00;101762.69;5050839;28;20443;-46
2022/07/13 04:51:48;;;;;;;23.40;21.10;;;;;;;19.43;100.00;101755.63;5050376;28;20541;-43
2022/07/13 04:54:16;;;;;;;26.73;23.93;;;;;;;19.47;100.00;101756.00;5050535;28;20441;-42
2022/07/13 04:56:44;;;;;;;25.07;22.67;;;;;;;19.45;100.00;101758.91;5050606;28;20840;-44
2022/07/13 04:59:13;;;;;;;27.60;24.70;;;;;;;19.44;100.00;101749.16;5050277;28;20455;-42
2022/07/13 05:01:41;;;;;;;28.73;25.83;;;;;;;19.44;100.00;101746.47;5050508;28;20550;-44
2022/07/13 05:04:09;;;;;;;26.20;23.50;;;;;;;19.47;100.00;101742.47;5050274;28;20438;-44
2022/07/13 05:06:37;;;;;;;24.50;22.03;;;;;;;19.50;100.00;101748.25;5050396;28;20437;-43
2022/07/13 05:09:06;;;;;;;23.90;21.57;;;;;;;19.54;100.00;101749.41;5050337;28;20528;-46
2022/07/13 05:11:34;;;;;;;25.87;23.27;;;;;;;19.55;100.00;101748.38;5049941;28;20546;-42
2022/07/13 05:14:01;;;;;;;25.30;23.00;;;;;;;19.58;100.00;101744.38;5050215;28;20552;-45
2022/07/13 05:16:29;;;;;;;24.83;22.47;;;;;;;19.62;100.00;101740.16;5050533;28;20474;-43
2022/07/13 05:18:57;;;;;;;30.37;22.73;;;;;;;19.63;100.00;101731.78;5050477;28;21124;-42
2022/07/13 05:21:25;;;;;;;22.43;20.07;;;;;;;19.67;100.00;101740.28;5050100;28;20458;-44
2022/07/13 05:23:52;;;;;;;22.17;20.00;;;;;;;19.73;100.00;101736.63;5050248;28;20435;-43
2022/07/13 05:26:21;;;;;;;23.27;21.17;;;;;;;19.82;100.00;101748.78;5050092;28;20800;-44
2022/07/13 05:28:49;;;;;;;26.87;24.20;;;;;;;19.89;100.00;101752.22;5050317;28;20458;-43
2022/07/13 05:31:17;;;;;;;23.47;21.30;;;;;;;19.96;100.00;101743.97;5050238;28;20465;-45
2022/07/13 05:33:44;;;;;;;24.23;21.93;;;;;;;20.00;100.00;101745.97;5041474;28;20432;-42
2022/07/13 05:36:12;;;;;;;24.33;22.00;;;;;;;20.01;100.00;101739.47;5050219;28;20526;-45
2022/07/13 05:38:40;;;;;;;24.73;22.17;;;;;;;20.00;100.00;101743.28;5049817;28;20431;-42
2022/07/13 05:41:08;;;;;;;28.67;25.77;;;;;;;19.98;100.00;101731.81;5049825;28;20455;-47
2022/07/13 05:43:37;;;;;;;24.60;20.60;;;;;;;19.97;100.00;101743.75;5050075;28;20431;-43
2022/07/13 05:46:05;;;;;;;24.80;22.53;;;;;;;19.97;100.00;101724.78;5050351;28;20434;-43
2022/07/13 05:48:33;;;;;;;22.63;20.53;;;;;;;19.98;100.00;101731.03;5053215;28;20435;-43
2022/07/13 05:51:01;;;;;;;25.57;23.17;;;;;;;20.02;100.00;101727.59;5053679;28;20433;-46
2022/07/13 05:53:50;;;;;;;27.37;24.57;;;;;;;20.06;100.00;101726.09;5053960;28;20431;-48
2022/07/13 05:56:18;;;;;;;24.37;21.90;;;;;;;20.08;100.00;101723.97;5054029;28;20434;-42
2022/07/13 05:58:47;;;;;;;24.63;20.50;;;;;;;20.12;100.00;101713.47;5054110;28;20553;-45
2022/07/13 06:01:14;;;;;;;24.47;22.20;;;;;;;20.23;100.00;101715.34;5053726;28;20553;-44
2022/07/13 06:03:42;;;;;;;25.30;22.67;;;;;;;20.32;100.00;101714.78;5053543;28;20430;-42
2022/07/13 06:06:10;;;;;;;29.40;26.33;;;;;;;20.43;100.00;101715.81;5053711;28;20924;-42
2022/07/13 06:08:38;;;;;;;23.07;21.03;;;;;;;20.64;100.00;101719.81;5042707;28;20446;-43
2022/07/13 06:11:06;;;;;;;25.80;23.00;;;;;;;20.83;100.00;101716.69;4986035;22;20550;-50
2022/07/13 06:13:33;;;;;;;28.83;26.07;;;;;;;21.03;100.00;101718.97;4952152;28;20435;-46
2022/07/13 06:16:02;;;;;;;29.97;27.10;;;;;;;21.21;100.00;101717.97;4952403;28;20467;-46
2022/07/13 06:18:30;;;;;;;28.97;25.90;;;;;;;21.47;100.00;101707.31;4952029;28;21012;-49
2022/07/13 06:20:58;;;;;;;23.27;21.03;;;;;;;21.62;100.00;101716.81;4951857;28;20459;-49
2022/07/13 06:23:25;;;;;;;23.07;20.83;;;;;;;21.72;99.90;101720.50;4951954;28;20439;-47
2022/07/13 06:25:54;;;;;;;18.87;17.20;;;;;;;21.90;99.47;101711.31;4952144;28;20440;-52
2022/07/13 06:28:21;;;;;;;20.40;18.70;;;;;;;22.09;99.30;101704.56;4952086;28;20441;-50
2022/07/13 06:30:49;;;;;;;26.40;23.87;;;;;;;22.27;97.55;101703.47;4951511;28;20477;-50
2022/07/13 06:33:18;;;;;;;25.97;23.67;;;;;;;22.55;96.64;101690.50;4943951;28;20462;-51
2022/07/13 06:35:46;;;;;;;21.70;19.73;;;;;;;23.04;96.86;101696.00;4952340;28;20864;-51
2022/07/13 06:38:14;;;;;;;22.70;20.80;;;;;;;23.60;91.25;101691.94;4952069;28;20485;-50
2022/07/13 06:40:41;;;;;;;18.80;17.30;;;;;;;23.93;91.31;101688.09;4951943;28;20451;-51
2022/07/13 06:43:09;;;;;;;19.83;18.03;;;;;;;24.00;86.54;101681.34;4951063;28;20457;-48
2022/07/13 06:45:37;;;;;;;22.07;20.37;;;;;;;23.84;80.72;101673.31;4951993;28;20439;-46
2022/07/13 06:48:05;;;;;;;16.73;15.23;;;;;;;23.84;82.42;101681.50;4951979;28;20432;-48
2022/07/13 06:50:34;;;;;;;21.77;19.80;;;;;;;23.83;82.76;101677.97;4951776;28;20463;-52
2022/07/13 06:53:02;;;;;;;21.43;19.53;;;;;;;23.68;80.79;101675.94;4951056;28;20542;-46
2022/07/13 06:55:30;;;;;;;15.60;14.20;;;;;;;23.62;81.90;101676.97;4951544;28;20475;-51
2022/07/13 06:57:57;;;;;;;17.30;16.07;;;;;;;23.56;81.81;101677.22;4951247;28;20562;-53
2022/07/13 07:00:25;;;;;;;17.20;15.77;;;;;;;23.47;82.31;101676.88;4951022;28;20538;-50
2022/07/13 07:02:53;;;;;;;18.90;17.30;;;;;;;23.40;83.32;101683.59;4950869;28;20463;-47
2022/07/13 07:05:21;;;;;;;16.27;14.77;;;;;;;23.33;83.34;101682.94;4951462;28;20435;-48
2022/07/13 07:07:50;;;;;;;21.53;19.43;;;;;;;23.28;84.18;101700.06;4951374;28;20430;-49
2022/07/13 07:10:18;;;;;;;18.23;16.70;;;;;;;23.14;83.48;101696.13;4951241;28;21284;-48
2022/07/13 07:12:47;;;;;;;17.20;15.80;;;;;;;23.13;85.01;101689.84;4949848;28;20491;-48
2022/07/13 07:15:15;;;;;;;18.80;17.20;;;;;;;23.15;85.37;101686.88;4951716;28;20853;-50
2022/07/13 07:17:46;;;;;;;18.67;17.17;;;;;;;23.20;85.81;101691.56;4951328;28;20481;-47
2022/07/13 07:20:15;;;;;;;20.10;18.30;;;;;;;23.21;84.16;101702.16;4951406;28;20999;-47
2022/07/13 07:22:45;;;;;;;19.33;17.73;;;;;;;23.19;84.71;101684.47;4948381;28;20459;-51
2022/07/13 07:25:15;;;;;;;18.33;16.83;;;;;;;23.13;84.59;101686.31;4950615;28;20605;-49
2022/07/13 07:27:43;;;;;;;17.83;16.27;;;;;;;23.13;85.05;101687.13;4950468;28;20526;-51
2022/07/13 07:30:11;;;;;;;17.47;15.97;;;;;;;23.09;84.65;101683.28;4950990;28;20494;-51
2022/07/13 07:32:39;;;;;;;17.80;16.40;;;;;;;23.19;85.63;101670.84;4950027;28;20467;-50
2022/07/13 07:35:08;;;;;;;17.13;15.70;;;;;;;23.23;85.02;101675.53;4943059;28;20481;-49
2022/07/13 07:37:38;;;;;;;15.73;14.53;;;;;;;23.27;84.78;101671.19;4950701;28;20506;-49
2022/07/13 07:40:10;;;;;;;22.10;20.10;;;;;;;23.29;84.42;101669.06;4950960;28;20886;-48
2022/07/13 07:42:39;;;;;;;18.90;17.40;;;;;;;23.41;84.65;101658.84;4949739;28;20756;-47
2022/07/13 07:45:08;;;;;;;18.53;16.87;;;;;;;23.54;84.20;101658.41;4950872;28;20936;-50
2022/07/13 07:47:36;;;;;;;19.80;17.97;;;;;;;23.74;82.78;101660.47;4950959;28;20438;-50
2022/07/13 07:50:05;;;;;;;16.93;15.63;;;;;;;23.88;81.13;101658.94;4950474;28;20455;-51
2022/07/13 07:52:33;;;;;;;18.67;17.17;;;;;;;24.03;80.50;101656.31;4949571;28;20487;-50
2022/07/13 07:55:20;;;;;;;18.20;16.73;;;;;;;24.16;80.18;101655.84;4950708;28;20776;-50
2022/07/13 07:57:51;;;;;;;15.10;14.00;;;;;;;24.28;80.36;101655.66;4949753;28;20558;-53
2022/07/13 08:00:20;;;;;;;18.77;16.90;;;;;;;24.40;79.46;101634.41;4950487;28;20520;-51
2022/07/13 08:02:48;;;;;;;15.07;13.87;;;;;;;24.68;78.82;101636.72;4949747;28;20550;-49
2022/07/13 08:05:16;;;;;;;17.77;16.37;;;;;;;25.07;77.76;101637.09;4950664;28;20437;-51
2022/07/13 08:07:45;;;;;;;18.50;17.00;;;;;;;25.22;74.86;101628.09;4949326;28;20523;-51
2022/07/13 08:10:14;;;;;;;15.10;14.00;;;;;;;25.61;73.91;101629.19;4950302;28;20510;-52
2022/07/13 08:13:03;;;;;;;17.23;15.90;;;;;;;26.59;74.10;101629.47;4949677;28;20463;-51
2022/07/13 08:15:31;;;;;;;17.90;16.40;;;;;;;27.15;69.46;101635.41;4950795;28;20431;-49
2022/07/13 08:17:59;;;;;;;17.73;16.53;;;;;;;27.48;67.97;101624.78;4950627;28;20467;-50
2022/07/13 08:20:27;;;;;;;14.20;13.30;;;;;;;27.57;65.88;101632.06;4950352;28;20459;-52
2022/07/13 08:22:55;;;;;;;16.53;15.33;;;;;;;27.51;64.83;101633.22;4949264;28;20463;-49
2022/07/13 08:25:24;;;;;;;15.40;14.40;;;;;;;27.46;64.52;101625.06;4958007;28;20959;-47
2022/07/13 08:27:51;;;;;;;16.40;15.10;;;;;;;27.33;62.99;101621.03;4943862;29;20455;-50
2022/07/13 08:30:20;;;;;;;14.63;13.73;;;;;;;27.12;63.29;101624.25;4949491;28;20540;-51
2022/07/13 08:32:48;;;;;;;16.70;15.27;;;;;;;26.98;64.45;101623.22;4948538;28;20491;-53
2022/07/13 08:40:58;;;;;;;17.20;15.90;;;;;;;28.12;60.96;101611.50;4889967;28;20916;-51
2022/07/13 08:43:26;;;;;;;13.87;12.87;;;;;;;28.82;61.22;101614.44;4935845;28;20471;-51
2022/07/13 08:45:55;;;;;;;14.50;13.40;;;;;;;29.18;60.20;101618.25;4950326;29;20892;-48
2022/07/13 08:48:29;;;;;;;13.10;12.20;;;;;;;29.41;52.12;101617.34;4949920;29;20438;-50
2022/07/13 08:50:56;;;;;;;12.50;11.70;;;;;;;29.32;52.13;101608.19;4949267;28;20455;-51
2022/07/13 08:53:25;;;;;;;12.67;11.80;;;;;;;29.36;52.20;101611.16;4949919;28;20526;-48
2022/07/13 08:55:56;;;;;;;11.10;10.40;;;;;;;29.45;53.47;101610.13;4949885;28;20530;-49
2022/07/13 08:58:25;;;;;;;11.40;10.60;;;;;;;29.46;50.46;101610.94;4949943;28;20980;-48
2022/07/13 09:00:53;;;;;;;10.03;9.43;;;;;;;29.09;52.82;101614.59;4949238;28;20443;-47
2022/07/13 09:03:22;;;;;;;10.00;9.50;;;;;;;28.94;52.36;101618.34;4949697;28;20526;-52
2022/07/13 09:05:50;;;;;;;8.70;8.20;;;;;;;29.04;52.29;101609.97;4949896;28;20435;-54
2022/07/13 09:08:20;;;;;;;8.60;8.10;;;;;;;28.76;52.06;101610.97;4949847;28;20435;-52
2022/07/13 09:10:52;;;;;;;8.53;8.10;;;;;;;28.47;52.09;101602.00;4948994;28;21005;-50
2022/07/13 09:13:38;;;;;;;8.60;8.10;;;;;;;28.60;51.19;101593.06;4949223;28;20534;-52
2022/07/13 09:16:14;;;;;;;9.70;9.13;;;;;;;28.46;50.57;101594.91;4950027;28;20486;-51
2022/07/13 09:18:44;;;;;;;9.50;8.40;;;;;;;28.35;52.56;101582.41;4949344;28;20478;-49
2022/07/13 09:21:12;;;;;;;7.60;7.20;;;;;;;28.44;51.56;101577.91;4948398;28;20953;-51
2022/07/13 09:23:40;;;;;;;9.63;7.50;;;;;;;28.56;52.06;101581.03;4948795;28;20619;-51
2022/07/13 09:26:08;;;;;;;6.83;6.43;;;;;;;28.85;51.92;101573.47;4948738;28;20510;-47
2022/07/13 09:28:44;;;;;;;5.90;5.40;;;;;;;28.93;48.71;101578.31;4949371;28;20431;-50
2022/07/13 09:31:13;;;;;;;7.00;6.60;;;;;;;28.82;50.40;101584.25;4948945;28;20466;-48
2022/07/13 09:33:44;;;;;;;6.13;5.83;;;;;;;29.03;50.18;101580.88;4941256;28;21062;-49
2022/07/13 09:36:13;;;;;;;5.93;5.63;;;;;;;29.16;50.70;101570.22;4941889;29;20436;-50
2022/07/13 09:38:42;;;;;;;5.13;4.83;;;;;;;29.39;49.36;101572.06;4948592;28;20566;-50
2022/07/13 09:41:21;;;;;;;6.20;5.90;;;;;;;29.42;48.59;101576.97;4929977;28;20470;-52
2022/07/13 09:46:56;;;;;;;5.30;5.00;;;;;;;29.15;48.85;101585.09;4930317;29;20439;-48
2022/07/13 09:49:34;;;;;;;6.20;5.70;;;;;;;29.28;46.40;101587.91;4930113;29;20510;-52
2022/07/13 09:52:04;;;;;;;5.80;5.50;;;;;;;29.12;47.57;101596.69;4929785;28;20547;-50
2022/07/13 09:54:33;;;;;;;5.37;5.07;;;;;;;28.99;49.26;101588.09;4930308;28;20435;-54
2022/07/13 09:57:05;;;;;;;5.90;5.47;;;;;;;28.76;49.53;101582.69;4929952;28;20814;-48
2022/07/13 09:59:35;;;;;;;5.50;5.30;;;;;;;28.88;49.75;101583.84;4929818;29;20486;-50
2022/07/13 10:02:04;;;;;;;5.20;4.90;;;;;;;29.13;49.57;101577.13;4929789;28;20559;-50
2022/07/13 10:04:35;;;;;;;5.80;5.40;;;;;;;29.23;48.02;101573.41;4929740;28;20506;-54
2022/07/13 10:07:19;;;;;;;6.10;5.80;;;;;;;28.81;47.54;101575.19;4929896;29;20436;-51
2022/07/13 10:09:47;;;;;;;4.50;4.30;;;;;;;28.21;48.08;101582.34;4929502;28;20547;-51
2022/07/13 10:12:15;;;;;;;5.60;5.30;;;;;;;28.13;48.87;101587.66;4928910;28;20464;-51
2022/07/13 10:14:42;;;;;;;5.20;4.90;;;;;;;27.94;49.42;101587.56;4929903;28;20432;-51
2022/07/13 10:17:20;;;;;;;5.40;5.20;;;;;;;28.20;50.34;101588.91;4929923;28;20933;-49
2022/07/13 10:19:57;;;;;;;5.20;4.90;;;;;;;28.06;48.74;101598.97;4929618;28;21023;-52
2022/07/13 10:22:28;;;;;;;4.83;4.60;;;;;;;28.36;48.17;101593.09;4929305;28;20464;-49
2022/07/13 10:24:57;;;;;;;5.20;5.00;;;;;;;27.70;49.19;101598.53;4929658;28;20957;-48
2022/07/13 10:27:27;;;;;;;5.53;5.23;;;;;;;27.03;49.06;101588.41;4929812;28;20448;-49
2022/07/13 10:29:57;;;;;;;5.30;4.90;;;;;;;27.58;50.34;101600.84;4929792;28;20463;-49
2022/07/13 10:32:27;;;;;;;5.00;4.80;;;;;;;27.68;48.14;101598.00;4934515;28;20554;-49
2022/07/13 10:34:59;;;;;;;5.07;4.77;;;;;;;27.91;48.26;101594.47;4942560;28;20441;-48
2022/07/13 10:37:28;;;;;;;4.60;4.40;;;;;;;28.03;47.57;101597.59;4951320;28;20533;-47
2022/07/13 10:40:13;;;;;;;6.07;5.67;;;;;;;27.12;49.03;101596.84;4951786;28;20491;-47
2022/07/13 10:43:09;;;;;;;5.57;5.20;;;;;;;27.71;48.95;101602.09;4951154;28;20890;-50
2022/07/13 10:45:39;;;;;;;9.03;5.13;;;;;;;27.81;50.14;101601.97;4951977;28;20493;-50
2022/07/13 10:48:11;;;;;;;5.57;5.17;;;;;;;28.17;49.63;101588.69;4951809;28;20530;-52
2022/07/13 10:50:45;;;;;;;4.80;4.60;;;;;;;28.14;46.97;101594.75;4951316;28;20893;-49
2022/07/13 10:53:15;;;;;;;5.13;4.83;;;;;;;28.47;47.75;101600.09;4951312;28;20864;-48
2022/07/13 10:55:47;;;;;;;6.07;5.67;;;;;;;28.70;46.47;101598.44;4951919;28;20928;-53
2022/07/13 10:58:43;;;;;;;5.30;5.00;;;;;;;29.06;44.96;101604.19;4951814;28;20431;-51
2022/07/13 11:01:37;;;;;;;6.03;5.53;;;;;;;28.73;46.64;101608.81;4951117;28;20476;-47
2022/07/13 11:04:07;;;;;;;6.53;6.13;;;;;;;28.75;47.02;101605.75;4950881;28;20986;-49
2022/07/13 11:06:38;;;;;;;6.80;6.10;;;;;;;28.75;47.40;101601.09;4951838;28;20530;-48
2022/07/13 11:09:18;;;;;;;6.80;6.40;;;;;;;28.62;49.43;101603.72;4951421;28;20435;-48
2022/07/13 11:11:47;;;;;;;5.63;5.33;;;;;;;28.95;48.56;101611.75;4950888;28;21000;-52
2022/07/13 11:14:59;;;;;;;6.17;5.63;;;;;;;29.45;44.51;101582.66;4951010;28;20441;-53
2022/07/13 11:17:28;;;;;;;6.30;5.90;;;;;;;29.66;45.05;101594.06;4951722;28;20451;-52
2022/07/13 11:20:09;;;;;;;6.93;5.90;;;;;;;30.01;44.59;101589.88;4950778;28;20513;-48
2022/07/13 11:25:48;;;;;;;5.57;5.17;;;;;;;29.89;45.10;101601.38;4951178;28;20526;-48
2022/07/13 11:28:26;;;;;;;3.97;3.77;;;;;;;29.67;43.46;101605.88;4951109;28;20446;-52
2022/07/13 11:30:55;;;;;;;4.60;4.30;;;;;;;29.15;42.45;101605.16;4950553;28;20940;-48